Time;durP1;ratioP1;P1;durP2;ratioP2;P2;SDS_P1;SDS_P2;PMS_P1;PMS_P2;Temp;Humidity;BMP_temperature;BMP_pressure;BME280_temperature;BME280_humidity;BME280_pressure;Samples;Min_cycle;Max_cycle;Signal;HPM_P1;HPM_P2
2023/10/02 00:00:19;;;;;;;;;;;;;;;;;;5054080;28;19928;-64
2023/10/02 00:02:47;;;;;;;;;;;;;;;;;;5053743;28;19958;-64
2023/10/02 00:05:40;;;;;;;;;;;;;;;;;;5053186;28;19921;-64
2023/10/02 00:08:00;;;;;;;;;;;;;;;;;;5053779;28;20375;-64
2023/10/02 00:10:29;;;;;;;;;;;;;;;;;;5053421;28;19925;-64
2023/10/02 00:12:59;;;;;;;;;;;;;;;;;;5053866;28;19928;-64
2023/10/02 00:15:25;;;;;;;;;;;;;;;;;;5053549;28;20694;-64
2023/10/02 00:17:51;;;;;;;;;;;;;;;;;;5053498;28;19964;-64
2023/10/02 00:20:23;;;;;;;;;;;;;;;;;;5053576;28;19920;-64
2023/10/02 00:22:50;;;;;;;;;;;;;;;;;;5053773;28;19924;-64
2023/10/02 00:25:27;;;;;;;;;;;;;;;;;;5052472;28;19947;-64
2023/10/02 00:27:54;;;;;;;;;;;;;;;;;;5053655;28;19921;-64
2023/10/02 00:30:20;;;;;;;;;;;;;;;;;;5053653;28;20008;-64
2023/10/02 00:32:46;;;;;;;;;;;;;;;;;;5053525;28;19999;-64
2023/10/02 00:35:12;;;;;;;;;;;;;;;;;;5053017;28;19940;-65
2023/10/02 00:37:44;;;;;;;;;;;;;;;;;;5053619;28;20360;-62
2023/10/02 00:40:10;;;;;;;;;;;;;;;;;;5053479;28;19960;-63
2023/10/02 00:42:36;;;;;;;;;;;;;;;;;;5052975;28;19967;-63
2023/10/02 00:45:03;;;;;;;;;;;;;;;;;;5053079;28;19975;-63
2023/10/02 00:47:41;;;;;;;;;;;;;;;;;;5052789;28;19975;-63
2023/10/02 00:50:10;;;;;;;;;;;;;;;;;;5053207;28;19921;-63
2023/10/02 00:52:37;;;;;;;;;;;;;;;;;;5053264;28;20000;-63
2023/10/02 00:55:05;;;;;;;;;;;;;;;;;;5052926;28;19928;-63
2023/10/02 00:57:35;;;;;;;;;;;;;;;;;;5053037;28;19936;-63
2023/10/02 01:00:03;;;;;;;;;;;;;;;;;;5052662;28;19927;-63
2023/10/02 01:02:29;;;;;;;;;;;;;;;;;;5052979;28;19928;-63
2023/10/02 01:04:56;;;;;;;;;;;;;;;;;;5052743;28;19924;-63
2023/10/02 01:07:22;;;;;;;;;;;;;;;;;;5052593;28;20007;-63
2023/10/02 01:10:11;;;;;;;;;;;;;;;;;;5052426;28;20434;-63
2023/10/02 01:12:53;;;;;;;;;;;;;;;;;;5052207;28;19929;-63
2023/10/02 01:15:19;;;;;;;;;;;;;;;;;;5051167;28;19975;-64
2023/10/02 01:17:47;;;;;;;;;;;;;;;;;;5052447;28;19974;-64
2023/10/02 01:20:20;;;;;;;;;;;;;;;;;;5052609;28;19952;-64
2023/10/02 01:22:46;;;;;;;;;;;;;;;;;;5051193;28;19924;-64
2023/10/02 01:25:16;;;;;;;;;;;;;;;;;;5052344;28;19967;-64
2023/10/02 01:27:42;;;;;;;;;;;;;;;;;;5052334;28;19925;-64
2023/10/02 01:30:18;;;;;;;;;;;;;;;;;;5052636;28;19924;-64
2023/10/02 01:32:44;;;;;;;;;;;;;;;;;;5052404;28;19928;-64
2023/10/02 01:35:10;;;;;;;;;;;;;;;;;;5050833;28;20438;-64
2023/10/02 01:37:36;;;;;;;;;;;;;;;;;;5050782;28;19921;-64
2023/10/02 01:42:47;;;;;;;;;;;;;;;;;;5052129;28;20381;-64
2023/10/02 01:45:13;;;;;;;;;;;;;;;;;;5052361;28;19943;-64
2023/10/02 01:47:41;;;;;;;;;;;;;;;;;;5056826;28;20367;-64
2023/10/02 01:50:09;;;;;;;;;;;;;;;;;;5056577;28;20702;-64
2023/10/02 01:52:35;;;;;;;;;;;;;;;;;;5054862;28;19964;-64
2023/10/02 01:55:02;;;;;;;;;;;;;;;;;;5056497;28;19933;-64
2023/10/02 01:57:29;;;;;;;;;;;;;;;;;;5056650;28;19921;-64
2023/10/02 02:00:13;;;;;;;;;;;;;;;;;;5056079;28;20321;-64
2023/10/02 02:02:41;;;;;;;;;;;;;;;;;;5056069;28;19921;-64
2023/10/02 02:05:11;;;;;;;;;;;;;;;;;;5056206;28;19927;-64
2023/10/02 02:07:39;;;;;;;;;;;;;;;;;;5056224;28;19921;-64
2023/10/02 02:10:07;;;;;;;;;;;;;;;;;;5055844;28;20011;-64
2023/10/02 02:12:44;;;;;;;;;;;;;;;;;;5056078;28;19921;-64
2023/10/02 02:15:11;;;;;;;;;;;;;;;;;;5047948;28;20355;-64
2023/10/02 02:17:37;;;;;;;;;;;;;;;;;;5050074;28;19921;-64
2023/10/02 02:20:43;;;;;;;;;;;;;;;;;;5037809;28;20019;-64
2023/10/02 02:23:07;;;;;;;;;;;;;;;;;;5055659;28;19920;-64
2023/10/02 02:25:33;;;;;;;;;;;;;;;;;;5055616;28;20274;-64
2023/10/02 02:27:58;;;;;;;;;;;;;;;;;;5054629;28;19927;-64
2023/10/02 02:30:24;;;;;;;;;;;;;;;;;;5053304;28;19928;-64
2023/10/02 02:32:54;;;;;;;;;;;;;;;;;;5055052;28;20332;-64
2023/10/02 02:35:21;;;;;;;;;;;;;;;;;;5054774;28;19968;-64
2023/10/02 02:37:49;;;;;;;;;;;;;;;;;;5054519;28;19928;-64
2023/10/02 02:40:29;;;;;;;;;;;;;;;;;;5054562;28;20314;-64
2023/10/02 02:42:56;;;;;;;;;;;;;;;;;;5054382;28;19921;-64
2023/10/02 02:45:28;;;;;;;;;;;;;;;;;;5054764;28;19931;-64
2023/10/02 02:47:54;;;;;;;;;;;;;;;;;;5054505;28;19931;-64
2023/10/02 02:50:28;;;;;;;;;;;;;;;;;;5054529;28;20015;-64
2023/10/02 02:53:16;;;;;;;;;;;;;;;;;;5055253;28;19944;-64
2023/10/02 02:55:39;;;;;;;;;;;;;;;;;;5053680;28;20023;-64
2023/10/02 02:58:07;;;;;;;;;;;;;;;;;;5055278;28;20044;-64
2023/10/02 03:00:35;;;;;;;;;;;;;;;;;;5055022;28;19921;-64
2023/10/02 03:03:01;;;;;;;;;;;;;;;;;;5054827;28;19921;-64
2023/10/02 03:05:38;;;;;;;;;;;;;;;;;;5054972;28;19928;-64
2023/10/02 03:08:05;;;;;;;;;;;;;;;;;;5055064;28;19924;-64
2023/10/02 03:10:36;;;;;;;;;;;;;;;;;;5054769;28;19929;-64
2023/10/02 03:13:03;;;;;;;;;;;;;;;;;;5054810;28;19924;-64
2023/10/02 03:15:48;;;;;;;;;;;;;;;;;;5054691;28;19925;-64
2023/10/02 03:18:30;;;;;;;;;;;;;;;;;;5053301;28;19929;-64
2023/10/02 03:20:59;;;;;;;;;;;;;;;;;;5054701;28;20347;-64
2023/10/02 03:23:30;;;;;;;;;;;;;;;;;;5054843;28;20349;-64
2023/10/02 03:25:56;;;;;;;;;;;;;;;;;;5054211;28;20031;-64
2023/10/02 03:28:28;;;;;;;;;;;;;;;;;;5054412;28;19983;-64
2023/10/02 03:30:54;;;;;;;;;;;;;;;;;;5054762;28;19927;-64
2023/10/02 03:33:20;;;;;;;;;;;;;;;;;;5054583;28;20011;-64
2023/10/02 03:35:58;;;;;;;;;;;;;;;;;;5054541;28;19925;-64
2023/10/02 03:38:24;;;;;;;;;;;;;;;;;;5054230;28;20345;-65
2023/10/02 03:40:50;;;;;;;;;;;;;;;;;;5054201;28;19937;-65
2023/10/02 03:43:34;;;;;;;;;;;;;;;;;;5053611;28;19968;-65
2023/10/02 03:46:00;;;;;;;;;;;;;;;;;;5051937;28;19955;-65
2023/10/02 03:48:27;;;;;;;;;;;;;;;;;;5053011;28;19956;-65
2023/10/02 03:50:53;;;;;;;;;;;;;;;;;;5052827;28;19944;-66
2023/10/02 03:53:28;;;;;;;;;;;;;;;;;;5053319;28;20038;-65
2023/10/02 03:55:59;;;;;;;;;;;;;;;;;;5053088;28;19929;-65
2023/10/02 03:58:38;;;;;;;;;;;;;;;;;;5054326;28;19928;-65
2023/10/02 04:01:08;;;;;;;;;;;;;;;;;;5054229;28;19925;-64
2023/10/02 04:03:34;;;;;;;;;;;;;;;;;;5052427;28;19936;-64
2023/10/02 04:06:00;;;;;;;;;;;;;;;;;;5054058;28;19920;-64
2023/10/02 04:08:37;;;;;;;;;;;;;;;;;;5053253;28;19936;-64
2023/10/02 04:11:03;;;;;;;;;;;;;;;;;;5053782;28;20337;-64
2023/10/02 04:13:32;;;;;;;;;;;;;;;;;;5052498;28;20255;-64
2023/10/02 04:18:45;;;;;;;;;;;;;;;;;;5052390;28;19921;-64
2023/10/02 04:21:12;;;;;;;;;;;;;;;;;;5053925;28;19931;-64
2023/10/02 04:23:40;;;;;;;;;;;;;;;;;;5052395;28;19921;-64
2023/10/02 04:26:06;;;;;;;;;;;;;;;;;;5053655;28;19970;-64
2023/10/02 04:28:49;;;;;;;;;;;;;;;;;;5035748;28;19924;-64
2023/10/02 04:31:20;;;;;;;;;;;;;;;;;;5053897;28;19980;-64
2023/10/02 04:33:52;;;;;;;;;;;;;;;;;;5053408;28;19952;-64
2023/10/02 04:36:28;;;;;;;;;;;;;;;;;;5053668;28;19927;-64
2023/10/02 04:38:57;;;;;;;;;;;;;;;;;;5053642;28;19970;-64
2023/10/02 04:41:26;;;;;;;;;;;;;;;;;;5053288;28;19921;-64
2023/10/02 04:43:57;;;;;;;;;;;;;;;;;;5053436;28;19971;-64
2023/10/02 04:46:24;;;;;;;;;;;;;;;;;;5053478;28;19984;-64
2023/10/02 04:48:59;;;;;;;;;;;;;;;;;;5053466;28;20007;-64
2023/10/02 04:51:28;;;;;;;;;;;;;;;;;;5052971;28;19925;-64
2023/10/02 04:53:57;;;;;;;;;;;;;;;;;;5053189;28;19928;-64
2023/10/02 04:56:24;;;;;;;;;;;;;;;;;;5051864;28;19967;-64
2023/10/02 04:58:51;;;;;;;;;;;;;;;;;;5035108;28;19955;-65
2023/10/02 05:01:29;;;;;;;;;;;;;;;;;;5051920;28;19951;-64
2023/10/02 05:03:55;;;;;;;;;;;;;;;;;;5051559;28;19928;-64
2023/10/02 05:11:50;;;;;;;;;;;;;;;;;;5053008;28;19928;-64
2023/10/02 05:14:18;;;;;;;;;;;;;;;;;;5052863;28;19924;-64
2023/10/02 05:16:46;;;;;;;;;;;;;;;;;;5053091;28;19975;-64
2023/10/02 05:19:15;;;;;;;;;;;;;;;;;;5053049;28;20330;-64
2023/10/02 05:21:50;;;;;;;;;;;;;;;;;;5052096;28;19921;-64
2023/10/02 05:24:16;;;;;;;;;;;;;;;;;;5053382;22;19936;-63
2023/10/02 05:26:44;;;;;;;;;;;;;;;;;;5032890;28;19928;-63
2023/10/02 05:29:12;;;;;;;;;;;;;;;;;;5045875;28;19995;-64
2023/10/02 05:31:40;;;;;;;;;;;;;;;;;;5051880;28;20285;-62
2023/10/02 05:34:06;;;;;;;;;;;;;;;;;;5052828;28;19935;-62
2023/10/02 05:36:32;;;;;;;;;;;;;;;;;;5051562;28;20378;-62
2023/10/02 05:41:46;;;;;;;;;;;;;;;;;;5039209;28;20314;-63
2023/10/02 05:44:31;;;;;;;;;;;;;;;;;;5032262;28;19921;-63
2023/10/02 05:47:07;;;;;;;;;;;;;;;;;;5031882;28;20337;-63
2023/10/02 05:49:33;;;;;;;;;;;;;;;;;;5032417;28;19921;-63
2023/10/02 05:52:00;;;;;;;;;;;;;;;;;;5037288;28;19921;-63
2023/10/02 05:54:29;;;;;;;;;;;;;;;;;;5052573;28;19929;-63
2023/10/02 05:57:08;;;;;;;;;;;;;;;;;;5052500;28;19921;-63
2023/10/02 05:59:43;;;;;;;;;;;;;;;;;;5034052;28;20390;-63
2023/10/02 06:02:11;;;;;;;;;;;;;;;;;;5032442;28;19929;-63
2023/10/02 06:04:37;;;;;;;;;;;;;;;;;;5032233;28;19921;-63
2023/10/02 06:07:03;;;;;;;;;;;;;;;;;;5032450;28;19929;-63
2023/10/02 06:09:43;;;;;;;;;;;;;;;;;;5031391;28;19998;-64
2023/10/02 06:12:11;;;;;;;;;;;;;;;;;;5031983;28;20004;-64
2023/10/02 06:14:42;;;;;;;;;;;;;;;;;;5031954;28;19929;-64
2023/10/02 06:17:17;;;;;;;;;;;;;;;;;;5042042;28;19925;-64
2023/10/02 06:19:43;;;;;;;;;;;;;;;;;;5050414;28;19921;-64
2023/10/02 06:22:09;;;;;;;;;;;;;;;;;;5051414;28;19924;-64
2023/10/02 06:24:35;;;;;;;;;;;;;;;;;;5051270;28;19935;-64
2023/10/02 06:27:05;;;;;;;;;;;;;;;;;;5050976;28;20402;-64
2023/10/02 06:29:33;;;;;;;;;;;;;;;;;;5051002;28;20385;-64
2023/10/02 06:31:59;;;;;;;;;;;;;;;;;;5050531;28;20432;-64
2023/10/02 06:34:25;;;;;;;;;;;;;;;;;;5054475;28;19955;-64
2023/10/02 06:37:02;;;;;;;;;;;;;;;;;;5054536;28;20330;-64
2023/10/02 06:39:29;;;;;;;;;;;;;;;;;;5054313;28;19921;-64
2023/10/02 06:42:03;;;;;;;;;;;;;;;;;;5054476;28;19948;-65
2023/10/02 06:44:34;;;;;;;;;;;;;;;;;;5053910;28;19921;-64
2023/10/02 06:47:00;;;;;;;;;;;;;;;;;;5054426;28;19931;-64
2023/10/02 06:49:26;;;;;;;;;;;;;;;;;;5054328;28;19983;-64
2023/10/02 06:51:51;;;;;;;;;;;;;;;;;;5054433;28;19964;-64
2023/10/02 06:54:18;;;;;;;;;;;;;;;;;;5054309;28;19929;-64
2023/10/02 06:56:44;;;;;;;;;;;;;;;;;;5054472;28;19975;-64
2023/10/02 06:59:10;;;;;;;;;;;;;;;;;;5054260;28;20321;-64
2023/10/02 07:01:35;;;;;;;;;;;;;;;;;;5054418;28;19925;-64
2023/10/02 07:04:09;;;;;;;;;;;;;;;;;;5055061;28;19947;-64
2023/10/02 07:06:38;;;;;;;;;;;;;;;;;;5054982;28;19928;-64
2023/10/02 07:09:10;;;;;;;;;;;;;;;;;;5055106;28;19920;-64
2023/10/02 07:11:36;;;;;;;;;;;;;;;;;;5054631;28;20336;-64
2023/10/02 07:14:04;;;;;;;;;;;;;;;;;;5053762;28;20001;-64
2023/10/02 07:16:29;;;;;;;;;;;;;;;;;;5054130;28;19948;-64
2023/10/02 07:18:58;;;;;;;;;;;;;;;;;;5054423;28;20365;-64
2023/10/02 07:21:25;;;;;;;;;;;;;;;;;;5052540;28;19960;-64
2023/10/02 07:23:51;;;;;;;;;;;;;;;;;;5053882;28;19931;-64
2023/10/02 07:26:19;;;;;;;;;;;;;;;;;;5054051;28;19920;-64
2023/10/02 07:28:51;;;;;;;;;;;;;;;;;;5054128;28;19921;-63
2023/10/02 07:31:17;;;;;;;;;;;;;;;;;;5053981;28;20328;-63
2023/10/02 07:33:44;;;;;;;;;;;;;;;;;;5053460;28;19924;-63
2023/10/02 07:36:14;;;;;;;;;;;;;;;;;;5053607;28;20002;-63
2023/10/02 07:38:42;;;;;;;;;;;;;;;;;;5053619;28;19921;-63
2023/10/02 07:41:07;;;;;;;;;;;;;;;;;;5053714;28;20281;-64
2023/10/02 07:43:34;;;;;;;;;;;;;;;;;;5052592;28;20016;-64
2023/10/02 07:46:02;;;;;;;;;;;;;;;;;;5053915;28;19970;-64
2023/10/02 07:48:33;;;;;;;;;;;;;;;;;;5053947;28;19925;-64
2023/10/02 07:50:59;;;;;;;;;;;;;;;;;;5054029;28;20421;-63
2023/10/02 07:53:38;;;;;;;;;;;;;;;;;;5054341;28;19924;-66
2023/10/02 07:56:04;;;;;;;;;;;;;;;;;;5052924;28;19979;-63
2023/10/02 07:58:31;;;;;;;;;;;;;;;;;;5053895;28;19933;-64
2023/10/02 08:01:06;;;;;;;;;;;;;;;;;;5053816;28;19921;-63
2023/10/02 08:03:32;;;;;;;;;;;;;;;;;;5053739;28;19921;-64
2023/10/02 08:05:58;;;;;;;;;;;;;;;;;;5053922;28;19932;-63
2023/10/02 08:08:25;;;;;;;;;;;;;;;;;;5054020;28;19920;-63
2023/10/02 08:10:52;;;;;;;;;;;;;;;;;;5053757;28;19959;-63
2023/10/02 08:13:32;;;;;;;;;;;;;;;;;;5052558;28;19925;-61
2023/10/02 08:15:58;;;;;;;;;;;;;;;;;;5052782;28;20543;-60
2023/10/02 08:18:24;;;;;;;;;;;;;;;;;;5053235;28;20329;-60
2023/10/02 08:20:51;;;;;;;;;;;;;;;;;;5053071;28;19938;-61
2023/10/02 08:23:23;;;;;;;;;;;;;;;;;;5053006;28;20004;-61
2023/10/02 08:26:00;;;;;;;;;;;;;;;;;;5052782;28;19972;-61
2023/10/02 08:28:26;;;;;;;;;;;;;;;;;;5052797;28;20405;-61
2023/10/02 08:30:59;;;;;;;;;;;;;;;;;;5052886;28;19964;-62
2023/10/02 08:33:25;;;;;;;;;;;;;;;;;;5052981;28;19925;-62
2023/10/02 08:35:51;;;;;;;;;;;;;;;;;;5052702;28;20381;-62
2023/10/02 08:38:25;;;;;;;;;;;;;;;;;;5052654;28;19921;-62
2023/10/02 08:41:00;;;;;;;;;;;;;;;;;;5052696;28;19960;-62
2023/10/02 08:43:26;;;;;;;;;;;;;;;;;;5051080;28;19932;-62
2023/10/02 08:45:52;;;;;;;;;;;;;;;;;;5052679;28;20289;-62
2023/10/02 08:48:20;;;;;;;;;;;;;;;;;;5052407;28;19939;-62
2023/10/02 08:50:49;;;;;;;;;;;;;;;;;;5052563;28;19928;-62
2023/10/02 08:53:21;;;;;;;;;;;;;;;;;;5052293;28;20375;-61
2023/10/02 08:58:16;;;;;;;;;;;;;;;;;;5052220;28;19990;-62
2023/10/02 09:00:43;;;;;;;;;;;;;;;;;;5052105;28;20409;-62
2023/10/02 09:03:11;;;;;;;;;;;;;;;;;;5052264;28;20289;-62
2023/10/02 09:05:37;;;;;;;;;;;;;;;;;;5052060;28;19928;-62
2023/10/02 09:08:06;;;;;;;;;;;;;;;;;;5052365;28;20563;-62
2023/10/02 09:10:36;;;;;;;;;;;;;;;;;;5051978;28;19924;-62
2023/10/02 09:13:02;;;;;;;;;;;;;;;;;;5050708;28;19921;-62
2023/10/02 09:15:29;;;;;;;;;;;;;;;;;;5051848;28;19929;-62
2023/10/02 09:17:57;;;;;;;;;;;;;;;;;;5051785;28;19927;-61
2023/10/02 09:20:38;;;;;;;;;;;;;;;;;;5052138;28;19921;-61
2023/10/02 09:23:08;;;;;;;;;;;;;;;;;;5051981;28;19944;-61
2023/10/02 09:25:37;;;;;;;;;;;;;;;;;;5051887;28;19931;-62
2023/10/02 09:28:13;;;;;;;;;;;;;;;;;;5051754;28;20405;-62
2023/10/02 09:30:41;;;;;;;;;;;;;;;;;;5051976;28;19925;-62
2023/10/02 09:33:08;;;;;;;;;;;;;;;;;;5051637;28;20359;-62
2023/10/02 09:35:41;;;;;;;;;;;;;;;;;;5051621;28;19968;-61
2023/10/02 09:38:07;;;;;;;;;;;;;;;;;;5051864;28;19921;-61
2023/10/02 09:40:53;;;;;;;;;;;;;;;;;;5051718;28;19932;-61
2023/10/02 09:43:23;;;;;;;;;;;;;;;;;;5051657;28;19924;-61
2023/10/02 09:45:49;;;;;;;;;;;;;;;;;;5050383;28;19925;-62
2023/10/02 09:51:06;;;;;;;;;;;;;;;;;;5051679;28;19921;-62
2023/10/02 09:53:32;;;;;;;;;;;;;;;;;;5051421;28;19925;-62
2023/10/02 09:55:58;;;;;;;;;;;;;;;;;;5051640;28;19951;-61
2023/10/02 09:58:27;;;;;;;;;;;;;;;;;;5050073;28;19920;-61
2023/10/02 10:00:54;;;;;;;;;;;;;;;;;;5051670;28;19925;-61
2023/10/02 10:03:22;;;;;;;;;;;;;;;;;;5051757;28;20007;-61
2023/10/02 10:05:48;;;;;;;;;;;;;;;;;;5051316;28;20365;-61
2023/10/02 10:10:47;;;;;;;;;;;;;;;;;;5055490;28;19924;-62
2023/10/02 10:13:14;;;;;;;;;;;;;;;;;;5055624;28;19921;-60
2023/10/02 10:15:40;;;;;;;;;;;;;;;;;;5053888;28;20269;-60
2023/10/02 10:18:12;;;;;;;;;;;;;;;;;;5055288;28;19925;-61
2023/10/02 10:20:38;;;;;;;;;;;;;;;;;;5055219;28;19951;-61
2023/10/02 10:23:04;;;;;;;;;;;;;;;;;;5055280;28;19921;-61
2023/10/02 10:25:33;;;;;;;;;;;;;;;;;;5054962;28;20002;-61
2023/10/02 10:28:09;;;;;;;;;;;;;;;;;;5055088;28;19951;-61
2023/10/02 10:30:39;;;;;;;;;;;;;;;;;;5055107;28;19920;-61
2023/10/02 10:35:37;;;;;;;;;;;;;;;;;;5055184;28;19939;-61
2023/10/02 10:38:03;;;;;;;;;;;;;;;;;;5054938;28;19921;-61
2023/10/02 10:40:44;;;;;;;;;;;;;;;;;;5055135;28;19920;-60
2023/10/02 10:43:13;;;;;;;;;;;;;;;;;;5053460;28;20342;-61
2023/10/02 10:45:41;;;;;;;;;;;;;;;;;;5052775;28;20373;-62
2023/10/02 10:48:19;;;;;;;;;;;;;;;;;;5054814;28;19925;-62
2023/10/02 10:50:57;;;;;;;;;;;;;;;;;;5054916;28;19968;-62
2023/10/02 10:53:26;;;;;;;;;;;;;;;;;;5054607;28;20357;-62
2023/10/02 10:55:54;;;;;;;;;;;;;;;;;;5054754;28;19936;-62
2023/10/02 10:58:21;;;;;;;;;;;;;;;;;;5054806;28;19932;-62
2023/10/02 11:00:46;;;;;;;;;;;;;;;;;;5054612;28;19927;-61
2023/10/02 11:03:15;;;;;;;;;;;;;;;;;;5054441;28;20324;-61
2023/10/02 11:05:41;;;;;;;;;;;;;;;;;;5054493;28;19960;-61
2023/10/02 11:08:07;;;;;;;;;;;;;;;;;;5054316;28;19964;-61
2023/10/02 11:10:33;;;;;;;;;;;;;;;;;;5052553;28;19921;-61
2023/10/02 11:13:08;;;;;;;;;;;;;;;;;;5053670;28;19921;-61
2023/10/02 11:15:47;;;;;;;;;;;;;;;;;;5053957;28;20271;-61
2023/10/02 11:18:20;;;;;;;;;;;;;;;;;;5051795;28;19925;-61
2023/10/02 11:20:49;;;;;;;;;;;;;;;;;;5053338;28;19996;-62
2023/10/02 11:23:22;;;;;;;;;;;;;;;;;;5052980;28;19947;-62
2023/10/02 11:25:48;;;;;;;;;;;;;;;;;;5053180;28;20501;-61
2023/10/02 11:28:16;;;;;;;;;;;;;;;;;;5053167;28;20016;-61
2023/10/02 11:30:45;;;;;;;;;;;;;;;;;;5053147;28;20011;-61
2023/10/02 11:33:12;;;;;;;;;;;;;;;;;;5051543;28;19947;-61
2023/10/02 11:35:38;;;;;;;;;;;;;;;;;;5053215;28;19979;-61
2023/10/02 11:38:04;;;;;;;;;;;;;;;;;;5052760;28;19920;-61
2023/10/02 11:40:31;;;;;;;;;;;;;;;;;;5053915;28;19942;-61
2023/10/02 11:42:59;;;;;;;;;;;;;;;;;;5053957;28;20296;-61
2023/10/02 11:45:26;;;;;;;;;;;;;;;;;;5053730;28;20286;-61
2023/10/02 11:47:52;;;;;;;;;;;;;;;;;;5052224;28;20363;-61
2023/10/02 11:50:18;;;;;;;;;;;;;;;;;;5053821;28;19932;-61
2023/10/02 11:52:44;;;;;;;;;;;;;;;;;;5052053;28;19921;-61
2023/10/02 11:55:10;;;;;;;;;;;;;;;;;;5053769;28;20294;-61
2023/10/02 11:57:37;;;;;;;;;;;;;;;;;;5053283;28;19925;-62
2023/10/02 12:00:08;;;;;;;;;;;;;;;;;;5053381;28;20371;-62
2023/10/02 12:02:34;;;;;;;;;;;;;;;;;;5035468;28;19921;-62
2023/10/02 12:05:00;;;;;;;;;;;;;;;;;;5053457;28;19921;-62
2023/10/02 12:07:26;;;;;;;;;;;;;;;;;;5051969;28;20333;-62
2023/10/02 12:09:53;;;;;;;;;;;;;;;;;;5053420;28;19921;-60
2023/10/02 12:12:19;;;;;;;;;;;;;;;;;;5053296;28;19921;-61
2023/10/02 12:14:45;;;;;;;;;;;;;;;;;;5053049;28;19929;-61
2023/10/02 12:17:14;;;;;;;;;;;;;;;;;;5053020;28;20440;-61
2023/10/02 12:19:41;;;;;;;;;;;;;;;;;;5053134;28;19927;-61
2023/10/02 12:22:06;;;;;;;;;;;;;;;;;;5053213;28;19929;-61
2023/10/02 12:24:34;;;;;;;;;;;;;;;;;;5052713;28;19975;-61
2023/10/02 12:27:00;;;;;;;;;;;;;;;;;;5052966;28;19924;-62
2023/10/02 12:29:26;;;;;;;;;;;;;;;;;;5052478;28;20282;-62
2023/10/02 12:31:52;;;;;;;;;;;;;;;;;;5052986;28;19927;-62
2023/10/02 12:34:18;;;;;;;;;;;;;;;;;;5052707;28;20417;-62
2023/10/02 12:36:44;;;;;;;;;;;;;;;;;;5052707;28;19968;-62
2023/10/02 12:39:12;;;;;;;;;;;;;;;;;;5052782;28;20354;-62
2023/10/02 12:41:38;;;;;;;;;;;;;;;;;;5052809;28;19921;-62
2023/10/02 12:44:04;;;;;;;;;;;;;;;;;;5052506;28;20367;-62
2023/10/02 12:46:30;;;;;;;;;;;;;;;;;;5052664;28;19967;-62
2023/10/02 12:48:57;;;;;;;;;;;;;;;;;;5052706;28;19932;-62
2023/10/02 12:51:23;;;;;;;;;;;;;;;;;;5052509;28;19925;-62
2023/10/02 12:53:50;;;;;;;;;;;;;;;;;;5052128;28;20038;-62
2023/10/02 12:56:18;;;;;;;;;;;;;;;;;;5052290;28;19931;-62
2023/10/02 12:58:44;;;;;;;;;;;;;;;;;;5052132;28;19932;-61
2023/10/02 13:01:13;;;;;;;;;;;;;;;;;;5052468;28;19929;-62
2023/10/02 13:03:39;;;;;;;;;;;;;;;;;;5052439;28;19928;-62
2023/10/02 13:06:05;;;;;;;;;;;;;;;;;;5052354;28;20337;-61
2023/10/02 13:08:32;;;;;;;;;;;;;;;;;;5052361;28;19958;-61
2023/10/02 13:10:58;;;;;;;;;;;;;;;;;;5051950;28;20381;-62
2023/10/02 13:13:24;;;;;;;;;;;;;;;;;;5051931;28;19925;-61
2023/10/02 13:15:51;;;;;;;;;;;;;;;;;;5052075;28;19955;-62
2023/10/02 13:18:17;;;;;;;;;;;;;;;;;;5052073;28;20263;-61
2023/10/02 13:20:43;;;;;;;;;;;;;;;;;;5051962;28;19928;-61
2023/10/02 13:23:09;;;;;;;;;;;;;;;;;;5051861;28;19967;-62
2023/10/02 13:25:35;;;;;;;;;;;;;;;;;;5051858;28;19924;-61
2023/10/02 13:28:01;;;;;;;;;;;;;;;;;;5052024;28;19947;-61
2023/10/02 13:30:30;;;;;;;;;;;;;;;;;;5050498;28;20366;-61
2023/10/02 13:32:56;;;;;;;;;;;;;;;;;;5051957;28;19947;-61
2023/10/02 13:35:22;;;;;;;;;;;;;;;;;;5051629;28;20378;-62
2023/10/02 13:37:47;;;;;;;;;;;;;;;;;;5051770;28;20550;-60
2023/10/02 13:40:26;;;;;;;;;;;;;;;;;;5051586;28;19929;-62
2023/10/02 13:42:52;;;;;;;;;;;;;;;;;;5050912;28;20342;-61
2023/10/02 13:45:21;;;;;;;;;;;;;;;;;;5051813;28;19927;-62
2023/10/02 13:47:47;;;;;;;;;;;;;;;;;;5051782;28;19925;-62
2023/10/02 13:50:13;;;;;;;;;;;;;;;;;;5051825;28;19921;-60
2023/10/02 13:52:39;;;;;;;;;;;;;;;;;;5050174;28;19959;-61
2023/10/02 13:55:19;;;;;;;;;;;;;;;;;;5050126;28;19960;-60
2023/10/02 13:57:45;;;;;;;;;;;;;;;;;;5051774;28;19935;-61
2023/10/02 14:00:11;;;;;;;;;;;;;;;;;;5051578;28;19924;-62
2023/10/02 14:02:40;;;;;;;;;;;;;;;;;;5051690;28;20012;-61
2023/10/02 14:05:06;;;;;;;;;;;;;;;;;;5051312;28;20393;-61
2023/10/02 14:07:33;;;;;;;;;;;;;;;;;;5051751;28;19932;-61
2023/10/02 14:09:59;;;;;;;;;;;;;;;;;;5050853;28;19927;-63
2023/10/02 14:12:26;;;;;;;;;;;;;;;;;;5050817;28;19920;-64
2023/10/02 14:14:53;;;;;;;;;;;;;;;;;;5050680;28;19925;-61
2023/10/02 14:17:19;;;;;;;;;;;;;;;;;;5050633;28;20638;-61
2023/10/02 14:19:45;;;;;;;;;;;;;;;;;;5050986;28;20278;-61
2023/10/02 14:22:12;;;;;;;;;;;;;;;;;;5051351;28;19927;-61
2023/10/02 14:24:38;;;;;;;;;;;;;;;;;;5050018;28;20007;-61
2023/10/02 14:27:04;;;;;;;;;;;;;;;;;;5051345;28;20003;-61
2023/10/02 14:29:30;;;;;;;;;;;;;;;;;;5051330;28;19951;-61
2023/10/02 14:31:57;;;;;;;;;;;;;;;;;;5051188;28;19929;-61
2023/10/02 14:34:23;;;;;;;;;;;;;;;;;;5049850;28;19925;-61
2023/10/02 14:36:50;;;;;;;;;;;;;;;;;;5051084;28;19979;-61
2023/10/02 14:39:16;;;;;;;;;;;;;;;;;;5051416;28;19924;-61
2023/10/02 14:41:42;;;;;;;;;;;;;;;;;;5051290;28;19927;-61
2023/10/02 14:44:08;;;;;;;;;;;;;;;;;;5049995;28;19925;-62
2023/10/02 14:46:33;;;;;;;;;;;;;;;;;;5049855;28;19924;-61
2023/10/02 14:48:59;;;;;;;;;;;;;;;;;;5051237;28;19927;-61
2023/10/02 14:51:25;;;;;;;;;;;;;;;;;;5050985;28;19921;-61
2023/10/02 14:53:51;;;;;;;;;;;;;;;;;;5052236;28;19951;-61
2023/10/02 14:56:20;;;;;;;;;;;;;;;;;;5053268;28;19940;-61
2023/10/02 14:58:50;;;;;;;;;;;;;;;;;;5054825;28;19931;-61
2023/10/02 15:01:16;;;;;;;;;;;;;;;;;;5054413;28;20465;-61
2023/10/02 15:03:43;;;;;;;;;;;;;;;;;;5054488;28;19924;-62
2023/10/02 15:06:10;;;;;;;;;;;;;;;;;;5054514;28;20305;-61
2023/10/02 15:08:36;;;;;;;;;;;;;;;;;;5054499;28;19955;-61
2023/10/02 15:11:03;;;;;;;;;;;;;;;;;;5052912;28;20396;-61
2023/10/02 15:13:30;;;;;;;;;;;;;;;;;;5054579;28;19927;-61
2023/10/02 15:15:57;;;;;;;;;;;;;;;;;;5054248;28;19990;-61
2023/10/02 15:18:23;;;;;;;;;;;;;;;;;;5054280;28;19920;-60
2023/10/02 15:20:52;;;;;;;;;;;;;;;;;;5052892;28;19972;-61
2023/10/02 15:23:18;;;;;;;;;;;;;;;;;;5054012;28;19924;-61
2023/10/02 15:25:44;;;;;;;;;;;;;;;;;;5054102;28;20301;-60
2023/10/02 15:28:10;;;;;;;;;;;;;;;;;;5054209;28;19925;-60
2023/10/02 15:30:36;;;;;;;;;;;;;;;;;;5054244;28;19935;-61
2023/10/02 15:33:02;;;;;;;;;;;;;;;;;;5054041;28;20045;-61
2023/10/02 15:35:30;;;;;;;;;;;;;;;;;;5052487;28;19929;-61
2023/10/02 15:37:56;;;;;;;;;;;;;;;;;;5052454;28;20051;-61
2023/10/02 15:40:21;;;;;;;;;;;;;;;;;;5053837;28;20007;-61
2023/10/02 15:42:47;;;;;;;;;;;;;;;;;;5053758;28;20006;-61
2023/10/02 15:45:16;;;;;;;;;;;;;;;;;;5053984;28;19925;-61
2023/10/02 15:47:44;;;;;;;;;;;;;;;;;;5053815;28;19924;-61
2023/10/02 15:50:10;;;;;;;;;;;;;;;;;;5053562;28;20019;-60
2023/10/02 15:52:36;;;;;;;;;;;;;;;;;;5052484;28;20063;-61
2023/10/02 15:55:03;;;;;;;;;;;;;;;;;;5053612;28;19933;-61
2023/10/02 15:57:28;;;;;;;;;;;;;;;;;;5053690;28;19921;-61
2023/10/02 15:59:56;;;;;;;;;;;;;;;;;;5053626;28;19927;-61
2023/10/02 16:02:23;;;;;;;;;;;;;;;;;;5053544;28;19931;-61
2023/10/02 16:04:49;;;;;;;;;;;;;;;;;;5051289;28;19971;-61
2023/10/02 16:07:15;;;;;;;;;;;;;;;;;;5053061;28;19979;-61
2023/10/02 16:09:40;;;;;;;;;;;;;;;;;;5053398;28;19927;-61
2023/10/02 16:12:06;;;;;;;;;;;;;;;;;;5053359;28;19924;-61
2023/10/02 16:14:32;;;;;;;;;;;;;;;;;;5053139;28;19971;-61
2023/10/02 16:16:58;;;;;;;;;;;;;;;;;;5053002;28;19924;-61
2023/10/02 16:19:24;;;;;;;;;;;;;;;;;;5053174;28;19920;-61
2023/10/02 16:21:50;;;;;;;;;;;;;;;;;;5053020;28;20441;-61
2023/10/02 16:24:16;;;;;;;;;;;;;;;;;;5052017;28;19929;-61
2023/10/02 16:26:42;;;;;;;;;;;;;;;;;;5050788;28;19925;-61
2023/10/02 16:29:12;;;;;;;;;;;;;;;;;;5051213;28;19978;-62
2023/10/02 16:31:42;;;;;;;;;;;;;;;;;;5052086;28;20293;-61
2023/10/02 16:34:08;;;;;;;;;;;;;;;;;;5051784;28;19928;-61
2023/10/02 16:36:33;;;;;;;;;;;;;;;;;;5051762;28;19920;-62
2023/10/02 16:39:00;;;;;;;;;;;;;;;;;;5050199;28;19932;-61
2023/10/02 16:41:29;;;;;;;;;;;;;;;;;;5051571;28;19932;-61
2023/10/02 16:43:55;;;;;;;;;;;;;;;;;;5051398;28;20395;-62
2023/10/02 16:46:21;;;;;;;;;;;;;;;;;;5051695;28;19924;-62
2023/10/02 16:48:49;;;;;;;;;;;;;;;;;;5050633;28;19920;-62
2023/10/02 16:51:15;;;;;;;;;;;;;;;;;;5052572;28;19925;-61
2023/10/02 16:53:42;;;;;;;;;;;;;;;;;;5050934;28;19964;-61
2023/10/02 16:56:08;;;;;;;;;;;;;;;;;;5052357;28;19939;-62
2023/10/02 16:58:36;;;;;;;;;;;;;;;;;;5052468;28;19921;-61
2023/10/02 17:01:02;;;;;;;;;;;;;;;;;;5052542;28;19931;-62
2023/10/02 17:03:28;;;;;;;;;;;;;;;;;;5052124;28;20404;-62
2023/10/02 17:05:54;;;;;;;;;;;;;;;;;;5052202;28;19964;-61
2023/10/02 17:08:20;;;;;;;;;;;;;;;;;;5052179;28;19921;-61
2023/10/02 17:10:46;;;;;;;;;;;;;;;;;;5052256;28;19925;-62
2023/10/02 17:13:12;;;;;;;;;;;;;;;;;;5052274;28;19925;-62
2023/10/02 17:15:38;;;;;;;;;;;;;;;;;;5051878;28;19929;-61
2023/10/02 17:18:05;;;;;;;;;;;;;;;;;;5052204;28;20040;-62